sensor_id;sensor_type;location;lat;lon;timestamp;pressure;altitude;pressure_sealevel;temperature;humidity
39141;BME280;24875;48.436;10.298;2023-02-12T00:01:11;98150.56;;;3.80;100.00
39141;BME280;24875;48.436;10.298;2023-02-12T00:03:38;98162.22;;;3.74;100.00
39141;BME280;24875;48.436;10.298;2023-02-12T00:06:06;98156.53;;;3.68;100.00
39141;BME280;24875;48.436;10.298;2023-02-12T00:08:32;98158.09;;;3.70;100.00
39141;BME280;24875;48.436;10.298;2023-02-12T00:10:59;98167.44;;;3.74;100.00
39141;BME280;24875;48.436;10.298;2023-02-12T00:13:31;98162.22;;;3.74;100.00
39141;BME280;24875;48.436;10.298;2023-02-12T00:15:58;98158.75;;;3.74;100.00
39141;BME280;24875;48.436;10.298;2023-02-12T00:18:25;98161.00;;;3.80;100.00
39141;BME280;24875;48.436;10.298;2023-02-12T00:20:52;98167.59;;;3.71;100.00
39141;BME280;24875;48.436;10.298;2023-02-12T00:23:18;98161.72;;;3.68;100.00
39141;BME280;24875;48.436;10.298;2023-02-12T00:25:45;98171.97;;;3.71;100.00
39141;BME280;24875;48.436;10.298;2023-02-12T00:28:11;98169.31;;;3.57;100.00
39141;BME280;24875;48.436;10.298;2023-02-12T00:30:38;98170.72;;;3.62;100.00
39141;BME280;24875;48.436;10.298;2023-02-12T00:33:04;98167.88;;;3.67;100.00
39141;BME280;24875;48.436;10.298;2023-02-12T00:35:32;98165.25;;;3.67;100.00
39141;BME280;24875;48.436;10.298;2023-02-12T00:37:58;98165.69;;;3.60;100.00
39141;BME280;24875;48.436;10.298;2023-02-12T00:40:25;98164.94;;;3.58;100.00
39141;BME280;24875;48.436;10.298;2023-02-12T00:42:51;98172.75;;;3.58;100.00
39141;BME280;24875;48.436;10.298;2023-02-12T00:45:18;98171.84;;;3.59;100.00
39141;BME280;24875;48.436;10.298;2023-02-12T00:47:44;98170.91;;;3.60;100.00
39141;BME280;24875;48.436;10.298;2023-02-12T00:50:11;98173.50;;;3.60;100.00
39141;BME280;24875;48.436;10.298;2023-02-12T00:52:38;98173.91;;;3.67;100.00
39141;BME280;24875;48.436;10.298;2023-02-12T00:55:05;98174.44;;;3.59;100.00
39141;BME280;24875;48.436;10.298;2023-02-12T00:57:31;98180.56;;;3.58;100.00
39141;BME280;24875;48.436;10.298;2023-02-12T00:59:58;98177.22;;;3.56;100.00
39141;BME280;24875;48.436;10.298;2023-02-12T01:02:24;98172.09;;;3.54;100.00
39141;BME280;24875;48.436;10.298;2023-02-12T01:04:51;98174.88;;;3.51;100.00
39141;BME280;24875;48.436;10.298;2023-02-12T01:07:17;98176.56;;;3.52;100.00
39141;BME280;24875;48.436;10.298;2023-02-12T01:09:45;98168.66;;;3.54;100.00
39141;BME280;24875;48.436;10.298;2023-02-12T01:12:12;98174.88;;;3.51;100.00
39141;BME280;24875;48.436;10.298;2023-02-12T01:14:38;98174.72;;;3.54;100.00
39141;BME280;24875;48.436;10.298;2023-02-12T01:17:06;98177.13;;;3.57;100.00
39141;BME280;24875;48.436;10.298;2023-02-12T01:19:33;98170.66;;;3.49;100.00
39141;BME280;24875;48.436;10.298;2023-02-12T01:21:59;98174.03;;;3.51;100.00
39141;BME280;24875;48.436;10.298;2023-02-12T01:24:25;98174.03;;;3.51;100.00
39141;BME280;24875;48.436;10.298;2023-02-12T01:26:53;98171.84;;;3.59;100.00
39141;BME280;24875;48.436;10.298;2023-02-12T01:29:20;98177.41;;;3.53;100.00
39141;BME280;24875;48.436;10.298;2023-02-12T01:31:46;98173.03;;;3.53;100.00
39141;BME280;24875;48.436;10.298;2023-02-12T01:34:13;98174.03;;;3.51;100.00
39141;BME280;24875;48.436;10.298;2023-02-12T01:36:39;98174.81;;;3.53;100.00
39141;BME280;24875;48.436;10.298;2023-02-12T01:39:06;98175.53;;;3.55;100.00
39141;BME280;24875;48.436;10.298;2023-02-12T01:41:34;98183.94;;;3.60;100.00
39141;BME280;24875;48.436;10.298;2023-02-12T01:44:11;98176.50;;;3.67;100.00
39141;BME280;24875;48.436;10.298;2023-02-12T01:46:39;98178.72;;;3.60;100.00
39141;BME280;24875;48.436;10.298;2023-02-12T01:49:07;98177.97;;;3.58;100.00
39141;BME280;24875;48.436;10.298;2023-02-12T01:51:35;98173.22;;;3.50;100.00
39141;BME280;24875;48.436;10.298;2023-02-12T01:54:05;98169.50;;;3.54;100.00
39141;BME280;24875;48.436;10.298;2023-02-12T01:56:33;98168.06;;;3.49;100.00
39141;BME280;24875;48.436;10.298;2023-02-12T01:58:59;98171.53;;;3.49;100.00
39141;BME280;24875;48.436;10.298;2023-02-12T02:01:28;98165.13;;;3.55;100.00
39141;BME280;24875;48.436;10.298;2023-02-12T02:03:59;98161.50;;;3.57;100.00
39141;BME280;24875;48.436;10.298;2023-02-12T02:06:29;98154.50;;;3.58;100.00
39141;BME280;24875;48.436;10.298;2023-02-12T02:08:56;98157.63;;;3.49;100.00
39141;BME280;24875;48.436;10.298;2023-02-12T02:11:23;98152.63;;;3.46;100.00
39141;BME280;24875;48.436;10.298;2023-02-12T02:14:07;98158.59;;;3.48;100.00
39141;BME280;24875;48.436;10.298;2023-02-12T02:17:00;98153.78;;;3.56;100.00
39141;BME280;24875;48.436;10.298;2023-02-12T02:19:43;98154.69;;;3.55;100.00
39141;BME280;24875;48.436;10.298;2023-02-12T02:22:22;98155.72;;;3.52;100.00
39141;BME280;24875;48.436;10.298;2023-02-12T02:28:20;98152.28;;;3.52;100.00
39141;BME280;24875;48.436;10.298;2023-02-12T02:30:56;98154.88;;;3.52;100.00
39141;BME280;24875;48.436;10.298;2023-02-12T02:33:36;98147.16;;;3.50;100.00
39141;BME280;24875;48.436;10.298;2023-02-12T02:36:16;98145.19;;;3.54;100.00
39141;BME280;24875;48.436;10.298;2023-02-12T02:38:48;98142.78;;;3.51;100.00
39141;BME280;24875;48.436;10.298;2023-02-12T02:41:18;98141.28;;;3.47;100.00
39141;BME280;24875;48.436;10.298;2023-02-12T02:43:48;98139.69;;;3.44;100.00
39141;BME280;24875;48.436;10.298;2023-02-12T02:46:19;98136.06;;;3.47;100.00
39141;BME280;24875;48.436;10.298;2023-02-12T02:48:50;98137.81;;;3.46;100.00
39141;BME280;24875;48.436;10.298;2023-02-12T02:51:20;98142.19;;;3.46;100.00
39141;BME280;24875;48.436;10.298;2023-02-12T02:53:53;98143.09;;;3.45;100.00
39141;BME280;24875;48.436;10.298;2023-02-12T02:56:23;98148.31;;;3.45;100.00
39141;BME280;24875;48.436;10.298;2023-02-12T02:58:54;98139.59;;;3.46;100.00
39141;BME280;24875;48.436;10.298;2023-02-12T03:01:25;98139.41;;;3.49;100.00
39141;BME280;24875;48.436;10.298;2023-02-12T03:03:58;98152.72;;;3.44;100.00
39141;BME280;24875;48.436;10.298;2023-02-12T03:06:31;98146.00;;;3.40;100.00
39141;BME280;24875;48.436;10.298;2023-02-12T03:09:03;98145.91;;;3.42;100.00
39141;BME280;24875;48.436;10.298;2023-02-12T03:11:32;98139.19;;;3.38;100.00
39141;BME280;24875;48.436;10.298;2023-02-12T03:14:03;98144.88;;;3.44;100.00
39141;BME280;24875;48.436;10.298;2023-02-12T03:16:37;98143.88;;;3.47;100.00
39141;BME280;24875;48.436;10.298;2023-02-12T03:19:07;98140.25;;;3.49;100.00
39141;BME280;24875;48.436;10.298;2023-02-12T03:21:40;98138.38;;;3.51;100.00
39141;BME280;24875;48.436;10.298;2023-02-12T03:24:12;98139.41;;;3.49;100.00
39141;BME280;24875;48.436;10.298;2023-02-12T03:26:45;98140.16;;;3.51;100.00
39141;BME280;24875;48.436;10.298;2023-02-12T03:29:12;98144.78;;;3.46;100.00
39141;BME280;24875;48.436;10.298;2023-02-12T03:31:51;98152.66;;;3.60;100.00
39141;BME280;24875;48.436;10.298;2023-02-12T03:34:25;98156.19;;;3.59;100.00
39141;BME280;24875;48.436;10.298;2023-02-12T03:36:59;98154.25;;;3.62;100.00
39141;BME280;24875;48.436;10.298;2023-02-12T03:39:29;98149.22;;;3.59;100.00
39141;BME280;24875;48.436;10.298;2023-02-12T03:42:04;98149.13;;;3.61;100.00
39141;BME280;24875;48.436;10.298;2023-02-12T03:44:42;98153.44;;;3.62;100.00
39141;BME280;24875;48.436;10.298;2023-02-12T03:47:18;98163.75;;;3.63;100.00
39141;BME280;24875;48.436;10.298;2023-02-12T03:49:53;98155.03;;;3.64;100.00
39141;BME280;24875;48.436;10.298;2023-02-12T03:52:20;98153.88;;;3.54;100.00
39141;BME280;24875;48.436;10.298;2023-02-12T03:54:47;98156.47;;;3.54;100.00
39141;BME280;24875;48.436;10.298;2023-02-12T03:57:16;98161.97;;;3.63;100.00
39141;BME280;24875;48.436;10.298;2023-02-12T03:59:45;98162.25;;;3.59;100.00
39141;BME280;24875;48.436;10.298;2023-02-12T04:02:14;98174.28;;;3.62;100.00
39141;BME280;24875;48.436;10.298;2023-02-12T04:04:41;98174.44;;;3.59;100.00
39141;BME280;24875;48.436;10.298;2023-02-12T04:07:07;98177.56;;;3.50;100.00
39141;BME280;24875;48.436;10.298;2023-02-12T04:09:34;98176.66;;;3.51;100.00
39141;BME280;24875;48.436;10.298;2023-02-12T04:12:11;98178.06;;;3.56;100.00
39141;BME280;24875;48.436;10.298;2023-02-12T04:14:45;98183.66;;;3.50;100.00
39141;BME280;24875;48.436;10.298;2023-02-12T04:17:21;98180.84;;;3.53;100.00
39141;BME280;24875;48.436;10.298;2023-02-12T04:20:03;98181.59;;;3.55;100.00
39141;BME280;24875;48.436;10.298;2023-02-12T04:22:42;98181.59;;;3.55;100.00
39141;BME280;24875;48.436;10.298;2023-02-12T04:25:19;98191.19;;;3.55;100.00
39141;BME280;24875;48.436;10.298;2023-02-12T04:27:49;98188.75;;;3.52;100.00
39141;BME280;24875;48.436;10.298;2023-02-12T04:30:23;98191.38;;;3.52;100.00
39141;BME280;24875;48.436;10.298;2023-02-12T04:32:56;98186.88;;;3.54;100.00
39141;BME280;24875;48.436;10.298;2023-02-12T04:35:28;98193.13;;;3.51;100.00
39141;BME280;24875;48.436;10.298;2023-02-12T04:38:01;98194.06;;;3.50;100.00
39141;BME280;24875;48.436;10.298;2023-02-12T04:40:30;98197.09;;;3.43;100.00
39141;BME280;24875;48.436;10.298;2023-02-12T04:42:57;98195.41;;;3.42;100.00
39141;BME280;24875;48.436;10.298;2023-02-12T04:45:27;98197.59;;;3.49;100.00
39141;BME280;24875;48.436;10.298;2023-02-12T04:47:55;98193.38;;;3.47;100.00
39141;BME280;24875;48.436;10.298;2023-02-12T04:50:24;98202.81;;;3.49;100.00
39141;BME280;24875;48.436;10.298;2023-02-12T04:52:51;98196.25;;;3.42;100.00
39141;BME280;24875;48.436;10.298;2023-02-12T04:55:18;98202.47;;;3.40;100.00
39141;BME280;24875;48.436;10.298;2023-02-12T04:57:44;98198.94;;;3.41;100.00
39141;BME280;24875;48.436;10.298;2023-02-12T05:00:13;98190.50;;;3.51;100.00
39141;BME280;24875;48.436;10.298;2023-02-12T05:02:39;98186.50;;;3.46;100.00
39141;BME280;24875;48.436;10.298;2023-02-12T05:05:07;98180.94;;;3.52;100.00
39141;BME280;24875;48.436;10.298;2023-02-12T05:07:34;98183.78;;;3.47;100.00
39141;BME280;24875;48.436;10.298;2023-02-12T05:10:00;98194.13;;;3.49;100.00
39141;BME280;24875;48.436;10.298;2023-02-12T05:12:27;98194.50;;;3.43;100.00
39141;BME280;24875;48.436;10.298;2023-02-12T05:14:53;98194.31;;;3.46;100.00
39141;BME280;24875;48.436;10.298;2023-02-12T05:17:20;98199.44;;;3.47;100.00
39141;BME280;24875;48.436;10.298;2023-02-12T05:19:47;98192.53;;;3.46;100.00
39141;BME280;24875;48.436;10.298;2023-02-12T05:22:15;98193.88;;;3.53;100.00
39141;BME280;24875;48.436;10.298;2023-02-12T05:24:41;98193.22;;;3.50;100.00
39141;BME280;24875;48.436;10.298;2023-02-12T05:27:08;98196.25;;;3.42;100.00
39141;BME280;24875;48.436;10.298;2023-02-12T05:29:34;98191.22;;;3.39;100.00
39141;BME280;24875;48.436;10.298;2023-02-12T05:32:01;98181.63;;;3.40;100.00
39141;BME280;24875;48.436;10.298;2023-02-12T05:34:27;98192.22;;;3.37;100.00
39141;BME280;24875;48.436;10.298;2023-02-12T05:36:54;98181.81;;;3.37;100.00
39141;BME280;24875;48.436;10.298;2023-02-12T05:39:22;98193.38;;;3.47;100.00
39141;BME280;24875;48.436;10.298;2023-02-12T05:41:48;98192.03;;;3.40;100.00
39141;BME280;24875;48.436;10.298;2023-02-12T05:44:15;98194.66;;;3.40;100.00
39141;BME280;24875;48.436;10.298;2023-02-12T05:46:42;98201.41;;;3.44;100.00
39141;BME280;24875;48.436;10.298;2023-02-12T05:49:09;98204.00;;;3.44;100.00
39141;BME280;24875;48.436;10.298;2023-02-12T05:51:36;98203.13;;;3.43;100.00
39141;BME280;24875;48.436;10.298;2023-02-12T05:54:04;98198.94;;;3.41;100.00
39141;BME280;24875;48.436;10.298;2023-02-12T05:56:34;98204.66;;;3.47;100.00
39141;BME280;24875;48.436;10.298;2023-02-12T05:59:04;98211.63;;;3.47;100.00
39141;BME280;24875;48.436;10.298;2023-02-12T06:01:32;98202.13;;;3.46;100.00
39141;BME280;24875;48.436;10.298;2023-02-12T06:04:00;98207.69;;;3.40;100.00
39141;BME280;24875;48.436;10.298;2023-02-12T06:06:28;98208.44;;;3.42;100.00
39141;BME280;24875;48.436;10.298;2023-02-12T06:08:55;98215.44;;;3.41;100.00
39141;BME280;24875;48.436;10.298;2023-02-12T06:11:21;98218.28;;;3.37;100.00
39141;BME280;24875;48.436;10.298;2023-02-12T06:13:50;98223.81;;;3.46;100.00
39141;BME280;24875;48.436;10.298;2023-02-12T06:16:19;98224.66;;;3.47;100.00
39141;BME280;24875;48.436;10.298;2023-02-12T06:18:46;98223.50;;;3.37;100.00
39141;BME280;24875;48.436;10.298;2023-02-12T06:21:12;98222.38;;;3.41;100.00
39141;BME280;24875;48.436;10.298;2023-02-12T06:23:39;98227.50;;;3.42;100.00
39141;BME280;24875;48.436;10.298;2023-02-12T06:26:06;98228.69;;;3.37;100.00
39141;BME280;24875;48.436;10.298;2023-02-12T06:28:32;98234.59;;;3.40;100.00
39141;BME280;24875;48.436;10.298;2023-02-12T06:31:00;98236.94;;;3.45;100.00
39141;BME280;24875;48.436;10.298;2023-02-12T06:33:27;98234.69;;;3.39;100.00
39141;BME280;24875;48.436;10.298;2023-02-12T06:35:53;98237.28;;;3.39;100.00
39141;BME280;24875;48.436;10.298;2023-02-12T06:38:20;98238.94;;;3.40;100.00
39141;BME280;24875;48.436;10.298;2023-02-12T06:40:46;98239.72;;;3.42;100.00
39141;BME280;24875;48.436;10.298;2023-02-12T06:43:13;98238.78;;;3.43;100.00
39141;BME280;24875;48.436;10.298;2023-02-12T06:45:39;98234.50;;;3.42;100.00
39141;BME280;24875;48.436;10.298;2023-02-12T06:48:07;98237.59;;;3.48;100.00
39141;BME280;24875;48.436;10.298;2023-02-12T06:50:34;98247.53;;;3.42;100.00
39141;BME280;24875;48.436;10.298;2023-02-12T06:53:00;98239.91;;;3.39;100.00
39141;BME280;24875;48.436;10.298;2023-02-12T06:55:26;98237.53;;;3.34;100.00
39141;BME280;24875;48.436;10.298;2023-02-12T06:57:53;98243.50;;;3.36;100.00
39141;BME280;24875;48.436;10.298;2023-02-12T07:00:20;98242.22;;;3.43;100.00
39141;BME280;24875;48.436;10.298;2023-02-12T07:02:51;98244.13;;;3.55;100.00
39141;BME280;24875;48.436;10.298;2023-02-12T07:05:19;98239.78;;;3.56;100.00
39141;BME280;24875;48.436;10.298;2023-02-12T07:07:45;98247.25;;;3.46;100.00
39141;BME280;24875;48.436;10.298;2023-02-12T07:10:12;98252.22;;;3.51;100.00
39141;BME280;24875;48.436;10.298;2023-02-12T07:12:38;98238.88;;;3.41;100.00
39141;BME280;24875;48.436;10.298;2023-02-12T07:15:05;98238.44;;;3.49;100.00
39141;BME280;24875;48.436;10.298;2023-02-12T07:17:32;98246.84;;;3.54;100.00
39141;BME280;24875;48.436;10.298;2023-02-12T07:19:58;98239.78;;;3.56;100.00
39141;BME280;24875;48.436;10.298;2023-02-12T07:22:26;98228.00;;;3.64;100.00
39141;BME280;24875;48.436;10.298;2023-02-12T07:24:52;98234.25;;;3.62;100.00
39141;BME280;24875;48.436;10.298;2023-02-12T07:27:19;98228.66;;;3.67;100.00
39141;BME280;24875;48.436;10.298;2023-02-12T07:29:45;98231.84;;;3.72;100.00
39141;BME280;24875;48.436;10.298;2023-02-12T07:32:12;98227.22;;;3.77;100.00
39141;BME280;24875;48.436;10.298;2023-02-12T07:34:38;98229.28;;;3.86;100.00
39141;BME280;24875;48.436;10.298;2023-02-12T07:37:05;98225.09;;;3.84;100.00
39141;BME280;24875;48.436;10.298;2023-02-12T07:39:33;98226.16;;;3.95;100.00
39141;BME280;24875;48.436;10.298;2023-02-12T07:41:59;98216.47;;;3.97;100.00
39141;BME280;24875;48.436;10.298;2023-02-12T07:44:26;98223.00;;;4.04;100.00
39141;BME280;24875;48.436;10.298;2023-02-12T07:46:52;98225.84;;;4.15;100.00
39141;BME280;24875;48.436;10.298;2023-02-12T07:49:20;98221.72;;;4.25;100.00
39141;BME280;24875;48.436;10.298;2023-02-12T07:51:47;98227.63;;;4.28;100.00
39141;BME280;24875;48.436;10.298;2023-02-12T07:54:15;98223.63;;;4.37;100.00
39141;BME280;24875;48.436;10.298;2023-02-12T07:56:43;98222.50;;;4.41;100.00
39141;BME280;24875;48.436;10.298;2023-02-12T07:59:13;98226.16;;;4.38;100.00
39141;BME280;24875;48.436;10.298;2023-02-12T08:01:41;98223.34;;;4.41;100.00
39141;BME280;24875;48.436;10.298;2023-02-12T08:04:10;98228.31;;;4.46;100.00
39141;BME280;24875;48.436;10.298;2023-02-12T08:06:39;98224.38;;;4.53;100.00
39141;BME280;24875;48.436;10.298;2023-02-12T08:09:08;98223.53;;;4.52;100.00
39141;BME280;24875;48.436;10.298;2023-02-12T08:11:36;98220.63;;;4.43;100.00
39141;BME280;24875;48.436;10.298;2023-02-12T08:14:05;98224.13;;;4.57;100.00
39141;BME280;24875;48.436;10.298;2023-02-12T08:16:35;98227.19;;;4.78;100.00
39141;BME280;24875;48.436;10.298;2023-02-12T08:19:01;98232.69;;;4.73;100.00
39141;BME280;24875;48.436;10.298;2023-02-12T08:21:28;98229.97;;;4.88;100.00
39141;BME280;24875;48.436;10.298;2023-02-12T08:23:56;98225.19;;;4.95;100.00
39141;BME280;24875;48.436;10.298;2023-02-12T08:26:24;98213.56;;;5.93;100.00
39141;BME280;24875;48.436;10.298;2023-02-12T08:28:54;98212.88;;;7.26;100.00
39141;BME280;24875;48.436;10.298;2023-02-12T08:31:24;98204.59;;;6.84;100.00
39141;BME280;24875;48.436;10.298;2023-02-12T08:33:52;98222.09;;;6.59;100.00
39141;BME280;24875;48.436;10.298;2023-02-12T08:36:21;98230.13;;;6.18;100.00
39141;BME280;24875;48.436;10.298;2023-02-12T08:38:48;98225.94;;;6.04;100.00
39141;BME280;24875;48.436;10.298;2023-02-12T08:41:16;98219.63;;;5.94;100.00
39141;BME280;24875;48.436;10.298;2023-02-12T08:43:43;98224.84;;;5.94;100.00
39141;BME280;24875;48.436;10.298;2023-02-12T08:46:12;98220.56;;;5.93;100.00
39141;BME280;24875;48.436;10.298;2023-02-12T08:48:41;98217.66;;;5.97;100.00
39141;BME280;24875;48.436;10.298;2023-02-12T08:51:09;98214.59;;;6.03;100.00
39141;BME280;24875;48.436;10.298;2023-02-12T08:53:38;98208.53;;;6.03;100.00
39141;BME280;24875;48.436;10.298;2023-02-12T08:56:06;98213.69;;;5.78;100.00
39141;BME280;24875;48.436;10.298;2023-02-12T08:58:33;98211.44;;;5.86;100.00
39141;BME280;24875;48.436;10.298;2023-02-12T09:01:00;98218.25;;;5.88;100.00
39141;BME280;24875;48.436;10.298;2023-02-12T09:03:26;98213.03;;;6.01;100.00
39141;BME280;24875;48.436;10.298;2023-02-12T09:05:55;98218.09;;;6.04;100.00
39141;BME280;24875;48.436;10.298;2023-02-12T09:08:22;98222.97;;;5.96;100.00
39141;BME280;24875;48.436;10.298;2023-02-12T09:10:48;98219.19;;;5.87;100.00
39141;BME280;24875;48.436;10.298;2023-02-12T09:13:14;98225.69;;;5.94;100.00
39141;BME280;24875;48.436;10.298;2023-02-12T09:15:42;98226.03;;;6.14;100.00
39141;BME280;24875;48.436;10.298;2023-02-12T09:18:09;98219.66;;;6.06;100.00
39141;BME280;24875;48.436;10.298;2023-02-12T09:20:36;98221.75;;;6.01;100.00
39141;BME280;24875;48.436;10.298;2023-02-12T09:23:05;98223.22;;;6.05;100.00
39141;BME280;24875;48.436;10.298;2023-02-12T09:25:32;98220.94;;;5.87;100.00
39141;BME280;24875;48.436;10.298;2023-02-12T09:27:59;98226.06;;;5.76;100.00
39141;BME280;24875;48.436;10.298;2023-02-12T09:30:25;98227.88;;;5.61;100.00
39141;BME280;24875;48.436;10.298;2023-02-12T09:32:52;98229.66;;;5.47;100.00
39141;BME280;24875;48.436;10.298;2023-02-12T09:35:19;98231.72;;;5.42;100.00
39141;BME280;24875;48.436;10.298;2023-02-12T09:37:46;98239.31;;;5.46;100.00
39141;BME280;24875;48.436;10.298;2023-02-12T09:40:19;98246.75;;;5.52;100.00
39141;BME280;24875;48.436;10.298;2023-02-12T09:43:03;98237.47;;;5.61;100.00
39141;BME280;24875;48.436;10.298;2023-02-12T09:45:34;98243.63;;;5.60;100.00
39141;BME280;24875;48.436;10.298;2023-02-12T09:48:14;98238.66;;;5.83;100.00
39141;BME280;24875;48.436;10.298;2023-02-12T09:50:47;98243.59;;;5.74;100.00
39141;BME280;24875;48.436;10.298;2023-02-12T09:53:19;98239.84;;;5.78;100.00
39141;BME280;24875;48.436;10.298;2023-02-12T09:55:48;98242.94;;;5.84;100.00
39141;BME280;24875;48.436;10.298;2023-02-12T09:58:18;98245.91;;;5.92;100.00
39141;BME280;24875;48.436;10.298;2023-02-12T10:00:46;98239.25;;;5.87;100.00
39141;BME280;24875;48.436;10.298;2023-02-12T10:03:15;98243.50;;;6.02;100.00
39141;BME280;24875;48.436;10.298;2023-02-12T10:05:46;98243.81;;;6.09;100.00
39141;BME280;24875;48.436;10.298;2023-02-12T10:08:39;98246.69;;;6.19;100.00
39141;BME280;24875;48.436;10.298;2023-02-12T10:11:39;98242.16;;;6.08;100.00
39141;BME280;24875;48.436;10.298;2023-02-12T10:14:29;98236.75;;;6.24;100.00
39141;BME280;24875;48.436;10.298;2023-02-12T10:17:07;98238.66;;;6.34;100.00
39141;BME280;24875;48.436;10.298;2023-02-12T10:20:00;98230.78;;;6.22;100.00
39141;BME280;24875;48.436;10.298;2023-02-12T10:22:37;98238.13;;;6.29;100.00
39141;BME280;24875;48.436;10.298;2023-02-12T10:25:17;98236.31;;;6.17;100.00
39141;BME280;24875;48.436;10.298;2023-02-12T10:27:50;98238.53;;;6.36;100.00
39141;BME280;24875;48.436;10.298;2023-02-12T10:30:21;98240.34;;;6.35;100.00
39141;BME280;24875;48.436;10.298;2023-02-12T10:32:50;98241.47;;;6.44;100.00
39141;BME280;24875;48.436;10.298;2023-02-12T10:35:21;98244.19;;;6.42;100.00
39141;BME280;24875;48.436;10.298;2023-02-12T10:37:52;98233.31;;;6.36;100.00
39141;BME280;24875;48.436;10.298;2023-02-12T10:40:22;98236.53;;;6.27;100.00
39141;BME280;24875;48.436;10.298;2023-02-12T10:42:53;98232.69;;;6.45;100.00
39141;BME280;24875;48.436;10.298;2023-02-12T10:45:29;98234.56;;;6.55;100.00
39141;BME280;24875;48.436;10.298;2023-02-12T10:48:04;98234.47;;;6.57;100.00
39141;BME280;24875;48.436;10.298;2023-02-12T10:50:40;98228.69;;;6.64;100.00
39141;BME280;24875;48.436;10.298;2023-02-12T10:53:13;98231.84;;;6.69;100.00
39141;BME280;24875;48.436;10.298;2023-02-12T10:55:42;98229.94;;;6.46;100.00
39141;BME280;24875;48.436;10.298;2023-02-12T10:58:19;98225.25;;;6.64;100.00
39141;BME280;24875;48.436;10.298;2023-02-12T11:00:55;98215.28;;;6.56;100.00
39141;BME280;24875;48.436;10.298;2023-02-12T11:03:22;98213.84;;;6.52;100.00
39141;BME280;24875;48.436;10.298;2023-02-12T11:05:52;98217.69;;;6.34;100.00
39141;BME280;24875;48.436;10.298;2023-02-12T11:08:30;98215.09;;;6.47;100.00
39141;BME280;24875;48.436;10.298;2023-02-12T11:11:07;98213.72;;;6.66;100.00
39141;BME280;24875;48.436;10.298;2023-02-12T11:13:38;98213.31;;;6.60;100.00
39141;BME280;24875;48.436;10.298;2023-02-12T11:16:05;98220.75;;;6.53;100.00
39141;BME280;24875;48.436;10.298;2023-02-12T11:18:33;98213.44;;;6.58;100.00
39141;BME280;24875;48.436;10.298;2023-02-12T11:21:03;98205.66;;;6.69;100.00
39141;BME280;24875;48.436;10.298;2023-02-12T11:23:32;98208.69;;;6.63;100.00
39141;BME280;24875;48.436;10.298;2023-02-12T11:26:00;98212.03;;;6.65;100.00
39141;BME280;24875;48.436;10.298;2023-02-12T11:28:27;98205.00;;;6.65;100.00
39141;BME280;24875;48.436;10.298;2023-02-12T11:30:57;98211.09;;;6.66;100.00
39141;BME280;24875;48.436;10.298;2023-02-12T11:33:27;98203.31;;;6.77;100.00
39141;BME280;24875;48.436;10.298;2023-02-12T11:35:56;98205.88;;;6.78;100.00
39141;BME280;24875;48.436;10.298;2023-02-12T11:38:26;98207.31;;;6.70;100.00
39141;BME280;24875;48.436;10.298;2023-02-12T11:40:56;98209.00;;;6.71;100.00
39141;BME280;24875;48.436;10.298;2023-02-12T11:43:24;98210.69;;;6.60;100.00
39141;BME280;24875;48.436;10.298;2023-02-12T11:45:53;98207.75;;;6.76;100.00
39141;BME280;24875;48.436;10.298;2023-02-12T11:48:25;98196.22;;;6.79;100.00
39141;BME280;24875;48.436;10.298;2023-02-12T11:50:55;98197.84;;;6.92;100.00
39141;BME280;24875;48.436;10.298;2023-02-12T11:53:25;98193.47;;;6.93;100.00
39141;BME280;24875;48.436;10.298;2023-02-12T11:55:55;98196.31;;;6.90;100.00
39141;BME280;24875;48.436;10.298;2023-02-12T11:58:24;98197.38;;;6.87;100.00
39141;BME280;24875;48.436;10.298;2023-02-12T12:00:55;98195.97;;;6.94;100.00
39141;BME280;24875;48.436;10.298;2023-02-12T12:03:28;98192.31;;;6.84;100.00
39141;BME280;24875;48.436;10.298;2023-02-12T12:06:00;98194.28;;;6.93;100.00
39141;BME280;24875;48.436;10.298;2023-02-12T12:08:32;98186.31;;;6.95;100.00
39141;BME280;24875;48.436;10.298;2023-02-12T12:11:06;98187.81;;;6.99;100.00
39141;BME280;24875;48.436;10.298;2023-02-12T12:13:42;98189.78;;;6.95;100.00
39141;BME280;24875;48.436;10.298;2023-02-12T12:16:12;98180.91;;;6.85;100.00
39141;BME280;24875;48.436;10.298;2023-02-12T12:19:05;98182.56;;;6.99;100.00
39141;BME280;24875;48.436;10.298;2023-02-12T12:21:57;98185.59;;;6.93;100.00
39141;BME280;24875;48.436;10.298;2023-02-12T12:24:34;98188.53;;;6.88;100.00
39141;BME280;24875;48.436;10.298;2023-02-12T12:27:11;98186.44;;;6.93;100.00
39141;BME280;24875;48.436;10.298;2023-02-12T12:30:01;98182.25;;;6.91;100.00
39141;BME280;24875;48.436;10.298;2023-02-12T12:32:33;98181.66;;;6.87;100.00
39141;BME280;24875;48.436;10.298;2023-02-12T12:35:06;98179.09;;;6.86;100.00
39141;BME280;24875;48.436;10.298;2023-02-12T12:37:36;98182.56;;;6.99;100.00
39141;BME280;24875;48.436;10.298;2023-02-12T12:40:15;98184.72;;;7.05;100.00
39141;BME280;24875;48.436;10.298;2023-02-12T12:42:55;98179.56;;;7.16;100.00
39141;BME280;24875;48.436;10.298;2023-02-12T12:45:46;98169.28;;;7.13;100.00
39141;BME280;24875;48.436;10.298;2023-02-12T12:48:24;98167.19;;;7.18;100.00
39141;BME280;24875;48.436;10.298;2023-02-12T12:51:11;98162.91;;;7.17;100.00
39141;BME280;24875;48.436;10.298;2023-02-12T12:53:55;98166.97;;;7.21;100.00
39141;BME280;24875;48.436;10.298;2023-02-12T12:56:37;98163.56;;;7.31;100.00
39141;BME280;24875;48.436;10.298;2023-02-12T12:59:21;98167.13;;;7.30;100.00
39141;BME280;24875;48.436;10.298;2023-02-12T13:02:05;98174.06;;;7.31;100.00
39141;BME280;24875;48.436;10.298;2023-02-12T13:04:51;98161.22;;;7.16;100.00
39141;BME280;24875;48.436;10.298;2023-02-12T13:07:40;98164.03;;;7.13;100.00
39141;BME280;24875;48.436;10.298;2023-02-12T13:10:18;98164.09;;;7.00;100.00